createdAt,value
2023-03-15T00:00:29.747Z,4.55
2023-03-15T00:01:33.199Z,4.30
2023-03-15T00:02:38.152Z,4.13
2023-03-15T00:03:44.697Z,4.38
2023-03-15T00:04:47.462Z,4.50
2023-03-15T00:05:52.774Z,4.03
2023-03-15T00:06:56.936Z,4.35
2023-03-15T00:08:01.271Z,4.85
2023-03-15T00:09:06.732Z,4.30
2023-03-15T00:10:13.963Z,4.50
2023-03-15T00:11:18.030Z,4.32
2023-03-15T00:12:25.271Z,4.28
2023-03-15T00:13:29.105Z,4.50
2023-03-15T00:14:34.669Z,4.65
2023-03-15T00:15:49.398Z,4.60
2023-03-15T00:16:57.043Z,5.13
2023-03-15T00:18:03.519Z,4.90
2023-03-15T00:19:08.119Z,5.10
2023-03-15T00:20:24.987Z,4.70
2023-03-15T00:21:30.359Z,4.88
2023-03-15T00:22:34.703Z,5.00
2023-03-15T00:23:37.077Z,4.80
2023-03-15T00:24:40.811Z,5.07
2023-03-15T00:25:49.032Z,4.65
2023-03-15T00:26:52.561Z,5.18
2023-03-15T00:28:01.611Z,5.18
2023-03-15T00:29:08.275Z,4.90
2023-03-15T00:30:12.585Z,5.20
2023-03-15T00:31:21.933Z,5.00
2023-03-15T00:32:27.969Z,4.93
2023-03-15T00:33:35.244Z,5.30
2023-03-15T00:34:42.512Z,5.38
2023-03-15T00:35:46.165Z,5.28
2023-03-15T00:36:56.700Z,5.15
2023-03-15T00:38:02.500Z,5.22
2023-03-15T00:39:07.431Z,5.00
2023-03-15T00:40:13.792Z,5.25
2023-03-15T00:41:19.300Z,4.80
2023-03-15T00:42:22.663Z,5.75
2023-03-15T00:43:24.894Z,5.30
2023-03-15T00:44:28.263Z,5.53
2023-03-15T00:45:31.864Z,6.25
2023-03-15T00:46:34.080Z,6.15
2023-03-15T00:47:36.674Z,5.15
2023-03-15T00:48:39.998Z,5.32
2023-03-15T00:49:43.407Z,5.38
2023-03-15T00:50:45.760Z,5.90
2023-03-15T00:51:48.841Z,4.90
2023-03-15T00:52:59.043Z,5.35
2023-03-15T00:54:04.586Z,5.63
2023-03-15T00:55:14.043Z,5.60
2023-03-15T00:56:27.325Z,5.72
2023-03-15T00:57:33.570Z,5.57
2023-03-15T00:58:38.851Z,5.60
2023-03-15T00:59:41.325Z,5.97
2023-03-15T01:00:43.641Z,5.60
2023-03-15T01:01:46.749Z,5.53
2023-03-15T01:02:52.473Z,5.82
2023-03-15T01:03:56.083Z,5.50
2023-03-15T01:05:01.936Z,5.10
2023-03-15T01:06:09.618Z,5.32
2023-03-15T01:07:12.825Z,5.85
2023-03-15T01:08:15.470Z,5.70
2023-03-15T01:09:20.740Z,6.05
2023-03-15T01:10:22.785Z,5.93
2023-03-15T01:11:30.483Z,5.68
2023-03-15T01:12:35.450Z,5.75
2023-03-15T01:13:45.240Z,5.57
2023-03-15T01:14:50.552Z,6.07
2023-03-15T01:15:55.851Z,5.55
2023-03-15T01:16:58.693Z,5.80
2023-03-15T01:18:01.070Z,5.82
2023-03-15T01:19:04.807Z,5.75
2023-03-15T01:20:10.770Z,6.28
2023-03-15T01:21:16.349Z,6.07
2023-03-15T01:22:21.469Z,5.93
2023-03-15T01:23:24.428Z,6.05
2023-03-15T01:24:27.671Z,5.88
2023-03-15T01:25:37.661Z,5.80
2023-03-15T01:26:40.412Z,5.47
2023-03-15T01:27:51.414Z,6.28
2023-03-15T01:28:58.071Z,6.10
2023-03-15T01:30:02.060Z,5.80
2023-03-15T01:31:07.688Z,6.18
2023-03-15T01:32:10.889Z,5.72
2023-03-15T01:33:17.386Z,6.03
2023-03-15T01:34:29.224Z,5.97
2023-03-15T01:35:35.348Z,6.03
2023-03-15T01:36:39.329Z,5.80
2023-03-15T01:37:50.552Z,6.22
2023-03-15T01:38:56.626Z,5.82
2023-03-15T01:40:12.645Z,6.15
2023-03-15T01:41:16.413Z,6.22
2023-03-15T01:42:22.452Z,6.20
2023-03-15T01:43:29.518Z,6.22
2023-03-15T01:44:55.645Z,6.60
2023-03-15T01:46:06.822Z,5.43
2023-03-15T01:47:13.791Z,6.25
2023-03-15T01:48:16.783Z,6.50
2023-03-15T01:49:31.443Z,6.30
2023-03-15T01:50:36.266Z,5.68
2023-03-15T01:51:53.440Z,6.50
2023-03-15T01:52:56.531Z,5.65
2023-03-15T01:54:26.133Z,6.70
2023-03-15T01:55:30.110Z,6.25
2023-03-15T01:56:54.259Z,5.57
2023-03-15T01:58:00.776Z,6.22
2023-03-15T01:59:11.871Z,6.13
2023-03-15T02:00:20.182Z,6.38
2023-03-15T02:01:37.818Z,6.35
2023-03-15T02:02:51.586Z,5.90
2023-03-15T02:04:04.947Z,5.75
2023-03-15T02:05:19.724Z,6.30
2023-03-15T02:06:24.468Z,6.03
2023-03-15T02:07:35.754Z,6.20
2023-03-15T02:08:45.710Z,6.03
2023-03-15T02:10:01.980Z,5.95
2023-03-15T02:12:12.066Z,6.07
2023-03-15T02:13:25.592Z,5.95
2023-03-15T02:14:30.274Z,6.03
2023-03-15T02:16:44.416Z,6.20
2023-03-15T02:17:51.120Z,6.05
2023-03-15T02:18:58.766Z,5.95
2023-03-15T02:20:05.371Z,5.60
2023-03-15T02:21:29.768Z,5.80
2023-03-15T02:22:57.357Z,5.72
2023-03-15T02:24:25.964Z,6.20
2023-03-15T02:26:03.974Z,6.00
2023-03-15T02:27:06.657Z,5.75
2023-03-15T02:28:15.978Z,5.95
2023-03-15T02:29:21.632Z,6.13
2023-03-15T02:30:29.201Z,5.43
2023-03-15T02:31:38.366Z,6.53
2023-03-15T02:32:41.444Z,5.32
2023-03-15T02:33:49.312Z,5.50
2023-03-15T02:34:57.623Z,6.00
2023-03-15T02:36:28.780Z,6.80
2023-03-15T02:37:38.228Z,5.53
2023-03-15T02:38:43.122Z,5.80
2023-03-15T02:39:47.960Z,6.00
2023-03-15T02:40:55.758Z,5.97
2023-03-15T02:42:00.183Z,5.93
2023-03-15T02:43:14.220Z,6.03
2023-03-15T02:44:37.501Z,6.07
2023-03-15T02:45:44.780Z,5.80
2023-03-15T02:46:52.456Z,5.75
2023-03-15T02:47:58.088Z,5.90
2023-03-15T02:49:03.218Z,5.68
2023-03-15T02:50:08.617Z,5.93
2023-03-15T02:51:27.697Z,6.43
2023-03-15T02:52:32.516Z,6.35
2023-03-15T02:53:38.308Z,6.10
2023-03-15T02:54:43.492Z,5.85
2023-03-15T02:55:49.574Z,5.85
2023-03-15T02:56:57.603Z,5.95
2023-03-15T02:58:02.841Z,5.82
2023-03-15T02:59:06.555Z,6.18
2023-03-15T03:00:16.014Z,6.07
2023-03-15T03:01:21.015Z,5.90
2023-03-15T03:02:24.382Z,5.70
2023-03-15T03:03:28.840Z,5.70
2023-03-15T03:04:33.690Z,6.22
2023-03-15T03:05:40.848Z,5.68
2023-03-15T03:06:53.790Z,5.68
2023-03-15T03:08:02.964Z,6.25
2023-03-15T03:09:07.777Z,6.57
2023-03-15T03:10:12.477Z,5.88
2023-03-15T03:11:29.910Z,6.20
2023-03-15T03:13:39.138Z,6.05
2023-03-15T03:14:43.509Z,6.22
2023-03-15T03:15:59.047Z,6.47
2023-03-15T03:17:06.117Z,6.30
2023-03-15T03:18:17.053Z,6.30
2023-03-15T03:19:26.800Z,6.18
2023-03-15T03:20:30.906Z,6.50
2023-03-15T03:21:36.122Z,6.55
2023-03-15T03:22:41.296Z,6.65
2023-03-15T03:23:47.753Z,6.05
2023-03-15T03:24:53.688Z,6.47
2023-03-15T03:25:59.264Z,6.40
2023-03-15T03:27:02.836Z,6.35
2023-03-15T03:28:08.983Z,6.70
2023-03-15T03:29:14.861Z,6.38
2023-03-15T03:30:22.550Z,6.03
2023-03-15T03:31:33.993Z,6.07
2023-03-15T03:32:44.995Z,7.15
2023-03-15T03:33:49.256Z,7.28
2023-03-15T03:34:54.526Z,6.60
2023-03-15T03:36:07.430Z,6.63
2023-03-15T03:37:10.647Z,6.80
2023-03-15T03:38:29.625Z,6.70
2023-03-15T03:39:35.051Z,7.15
2023-03-15T03:40:40.523Z,7.43
2023-03-15T03:41:43.433Z,6.38
2023-03-15T03:42:47.513Z,7.05
2023-03-15T03:44:14.973Z,6.88
2023-03-15T03:45:18.864Z,6.80
2023-03-15T03:46:23.693Z,6.38
2023-03-15T03:47:28.591Z,6.32
2023-03-15T03:48:32.869Z,7.18
2023-03-15T03:49:40.307Z,6.60
2023-03-15T03:50:42.626Z,6.82
2023-03-15T03:51:44.637Z,5.97
2023-03-15T03:52:47.234Z,6.75
2023-03-15T03:54:58.479Z,6.38
2023-03-15T03:56:04.540Z,6.82
2023-03-15T03:57:08.014Z,7.03
2023-03-15T03:58:11.356Z,6.72
2023-03-15T03:59:19.838Z,6.95
2023-03-15T04:00:32.370Z,6.40
2023-03-15T04:01:35.207Z,7.18
2023-03-15T04:02:40.029Z,6.63
2023-03-15T04:03:42.803Z,7.05
2023-03-15T04:04:52.877Z,6.40
2023-03-15T04:05:57.944Z,6.93
2023-03-15T04:07:00.287Z,6.70
2023-03-15T04:08:10.301Z,6.60
2023-03-15T04:09:16.729Z,6.72
2023-03-15T04:10:29.166Z,7.03
2023-03-15T04:11:31.776Z,6.40
2023-03-15T04:12:45.653Z,7.07
2023-03-15T04:13:50.776Z,7.15
2023-03-15T04:14:55.130Z,6.85
2023-03-15T04:16:02.597Z,6.97
2023-03-15T04:17:14.613Z,6.93
2023-03-15T04:18:28.022Z,7.82
2023-03-15T04:19:31.329Z,5.85
2023-03-15T04:20:34.924Z,6.72
2023-03-15T04:21:38.490Z,7.45
2023-03-15T04:22:55.006Z,6.97
2023-03-15T04:24:07.635Z,6.80
2023-03-15T04:25:31.282Z,7.13
2023-03-15T04:26:58.605Z,6.70
2023-03-15T04:28:18.210Z,6.70
2023-03-15T04:29:30.014Z,6.70
2023-03-15T04:30:59.248Z,7.25
2023-03-15T04:32:12.976Z,7.50
2023-03-15T04:33:44.347Z,6.78
2023-03-15T04:35:04.614Z,7.22
2023-03-15T04:36:24.226Z,7.00
2023-03-15T04:37:53.025Z,6.65
2023-03-15T04:39:13.557Z,6.43
2023-03-15T04:40:39.600Z,7.03
2023-03-15T04:41:55.942Z,6.75
2023-03-15T04:43:27.024Z,7.22
2023-03-15T04:44:42.316Z,7.10
2023-03-15T04:46:06.522Z,7.25
2023-03-15T04:47:29.694Z,10.07
2023-03-15T04:48:43.580Z,7.13
2023-03-15T04:50:03.487Z,7.35
2023-03-15T04:51:17.173Z,7.38
2023-03-15T04:52:28.603Z,7.05
2023-03-15T04:53:52.287Z,7.15
2023-03-15T04:55:13.688Z,7.00
2023-03-15T04:56:45.196Z,7.15
2023-03-15T04:58:19.485Z,7.57
2023-03-15T04:59:51.475Z,7.32
2023-03-15T05:01:24.058Z,6.63
2023-03-15T05:02:43.885Z,6.57
2023-03-15T05:04:14.143Z,6.93
2023-03-15T05:05:38.225Z,6.80
2023-03-15T05:06:53.193Z,7.88
2023-03-15T05:08:26.303Z,7.57
2023-03-15T05:10:02.106Z,7.43
2023-03-15T05:11:16.755Z,7.50
2023-03-15T05:13:01.305Z,7.03
2023-03-15T05:14:23.621Z,8.00
2023-03-15T05:16:03.553Z,7.28
2023-03-15T05:17:16.958Z,7.45
2023-03-15T05:18:49.388Z,7.72
2023-03-15T05:20:12.207Z,7.63
2023-03-15T05:21:33.452Z,7.00
2023-03-15T05:22:55.670Z,7.35
2023-03-15T05:24:23.171Z,7.55
2023-03-15T05:25:55.466Z,7.13
2023-03-15T05:27:18.667Z,7.45
2023-03-15T05:28:45.822Z,7.70
2023-03-15T05:30:11.870Z,7.38
2023-03-15T05:31:37.576Z,7.07
2023-03-15T05:33:01.513Z,7.57
2023-03-15T05:34:35.766Z,7.80
2023-03-15T05:35:57.477Z,7.32
2023-03-15T05:37:33.448Z,7.97
2023-03-15T05:39:06.982Z,7.93
2023-03-15T05:40:34.348Z,7.38
2023-03-15T05:41:52.588Z,7.97
2023-03-15T05:43:13.854Z,7.22
2023-03-15T05:44:33.052Z,7.93
2023-03-15T05:45:50.863Z,7.90
2023-03-15T05:47:27.035Z,7.95
2023-03-15T05:48:56.088Z,8.15
2023-03-15T05:50:25.014Z,7.75
2023-03-15T05:53:31.223Z,7.55
2023-03-15T05:55:17.354Z,7.43
2023-03-15T05:56:41.787Z,7.88
2023-03-15T05:58:07.912Z,8.05
2023-03-15T05:59:14.205Z,8.52
2023-03-15T06:00:44.890Z,7.30
2023-03-15T06:02:01.654Z,8.55
2023-03-15T06:03:12.158Z,8.63
2023-03-15T06:04:30.880Z,8.15
2023-03-15T06:05:34.929Z,8.02
2023-03-15T06:06:39.809Z,8.25
2023-03-15T06:07:45.364Z,8.35
2023-03-15T06:08:52.804Z,8.18
2023-03-15T06:09:55.329Z,7.90
2023-03-15T06:10:58.660Z,8.63
2023-03-15T06:12:01.901Z,8.23
2023-03-15T06:13:04.956Z,8.45
2023-03-15T06:14:09.775Z,9.18
2023-03-15T06:15:22.732Z,8.65
2023-03-15T06:16:27.805Z,8.40
2023-03-15T06:17:35.586Z,8.10
2023-03-15T06:18:38.254Z,9.13
2023-03-15T06:19:40.442Z,8.27
2023-03-15T06:20:49.017Z,8.70
2023-03-15T06:21:54.307Z,8.82
2023-03-15T06:23:08.811Z,9.45
2023-03-15T06:24:20.061Z,8.90
2023-03-15T06:25:28.084Z,8.43
2023-03-15T06:26:32.827Z,8.00
2023-03-15T06:27:38.590Z,8.60
2023-03-15T06:28:45.338Z,8.80
2023-03-15T06:29:47.996Z,7.97
2023-03-15T06:30:51.810Z,8.20
2023-03-15T06:31:57.366Z,8.23
2023-03-15T06:33:01.337Z,8.07
2023-03-15T06:34:05.539Z,8.57
2023-03-15T06:35:10.333Z,8.18
2023-03-15T06:36:14.736Z,8.07
2023-03-15T06:37:28.853Z,8.02
2023-03-15T06:38:34.728Z,7.85
2023-03-15T06:39:37.823Z,8.77
2023-03-15T06:40:40.124Z,8.68
2023-03-15T06:41:42.479Z,7.68
2023-03-15T06:42:49.717Z,8.13
2023-03-15T06:43:53.657Z,8.00
2023-03-15T06:44:55.827Z,8.32
2023-03-15T06:46:00.188Z,8.80
2023-03-15T06:47:03.067Z,8.68
2023-03-15T06:48:05.167Z,8.25
2023-03-15T06:49:07.195Z,8.50
2023-03-15T06:50:10.083Z,8.65
2023-03-15T06:51:12.219Z,8.55
2023-03-15T06:52:14.204Z,8.93
2023-03-15T06:53:16.390Z,8.57
2023-03-15T06:54:18.434Z,8.85
2023-03-15T06:55:22.297Z,8.55
2023-03-15T06:56:24.479Z,9.32
2023-03-15T06:57:26.470Z,8.55
2023-03-15T06:58:28.401Z,8.88
2023-03-15T06:59:30.470Z,8.52
2023-03-15T07:00:32.534Z,8.68
2023-03-15T07:01:34.523Z,8.60
2023-03-15T07:02:37.780Z,8.10
2023-03-15T07:03:40.574Z,8.40
2023-03-15T07:04:44.679Z,8.63
2023-03-15T07:05:46.781Z,9.15
2023-03-15T07:06:48.787Z,9.68
2023-03-15T07:07:50.691Z,8.43
2023-03-15T07:08:52.752Z,8.32
2023-03-15T07:09:55.303Z,8.82
2023-03-15T07:11:02.493Z,9.40
2023-03-15T07:12:05.169Z,8.45
2023-03-15T07:13:07.438Z,11.27
2023-03-15T07:14:09.537Z,8.85
2023-03-15T07:15:12.323Z,8.63
2023-03-15T07:16:14.596Z,9.23
2023-03-15T07:17:19.147Z,9.70
2023-03-15T07:18:24.193Z,8.93
2023-03-15T07:19:26.167Z,8.68
2023-03-15T07:20:28.266Z,9.18
2023-03-15T07:21:30.225Z,8.10
2023-03-15T07:22:33.484Z,9.55
2023-03-15T07:23:35.476Z,9.55
2023-03-15T07:24:37.630Z,8.80
2023-03-15T07:25:53.875Z,8.98
2023-03-15T07:26:57.117Z,8.95
2023-03-15T07:27:59.366Z,9.02
2023-03-15T07:29:04.265Z,9.55
2023-03-15T07:30:09.980Z,9.05
2023-03-15T07:31:12.850Z,9.52
2023-03-15T07:32:15.211Z,9.15
2023-03-15T07:33:28.531Z,8.55
2023-03-15T07:34:30.816Z,9.43
2023-03-15T07:35:34.246Z,9.23
2023-03-15T07:36:36.372Z,9.63
2023-03-15T07:37:39.705Z,16.88
2023-03-15T07:38:48.899Z,9.75
2023-03-15T07:39:50.990Z,8.98
2023-03-15T07:40:54.668Z,10.10
2023-03-15T07:41:56.795Z,9.75
2023-03-15T07:43:06.743Z,9.10
2023-03-15T07:44:16.161Z,9.75
2023-03-15T07:45:18.255Z,9.40
2023-03-15T07:46:20.166Z,9.98
2023-03-15T07:47:22.207Z,10.20
2023-03-15T07:48:26.990Z,10.23
2023-03-15T07:49:28.860Z,10.30
2023-03-15T07:50:30.747Z,9.68
2023-03-15T07:51:32.820Z,9.95
2023-03-15T07:52:36.094Z,9.63
2023-03-15T07:53:38.020Z,9.57
2023-03-15T07:54:39.941Z,9.57
2023-03-15T07:55:42.029Z,9.68
2023-03-15T07:56:43.944Z,9.73
2023-03-15T07:57:47.226Z,10.88
2023-03-15T07:58:50.650Z,9.90
2023-03-15T07:59:53.600Z,9.70
2023-03-15T08:00:56.537Z,10.35
2023-03-15T08:02:04.112Z,9.80
2023-03-15T08:03:07.243Z,10.07
2023-03-15T08:04:09.176Z,9.77
2023-03-15T08:05:11.161Z,9.57
2023-03-15T08:06:13.200Z,10.07
2023-03-15T08:07:14.954Z,10.07
2023-03-15T08:08:17.317Z,10.77
2023-03-15T08:09:19.215Z,10.70
2023-03-15T08:10:21.152Z,10.30
2023-03-15T08:11:23.051Z,9.65
2023-03-15T08:12:25.604Z,9.73
2023-03-15T08:13:27.623Z,10.05
2023-03-15T08:14:31.734Z,10.38
2023-03-15T08:15:33.634Z,9.88
2023-03-15T08:16:42.378Z,9.80
2023-03-15T08:17:44.530Z,10.40
2023-03-15T08:18:46.757Z,9.65
2023-03-15T08:19:51.759Z,10.07
2023-03-15T08:20:53.660Z,10.30
2023-03-15T08:21:55.645Z,10.40
2023-03-15T08:22:57.797Z,10.25
2023-03-15T08:24:00.933Z,10.55
2023-03-15T08:25:04.677Z,10.45
2023-03-15T08:26:06.688Z,10.45
2023-03-15T08:27:08.712Z,9.45
2023-03-15T08:28:11.653Z,9.65
2023-03-15T08:29:14.003Z,10.13
2023-03-15T08:30:17.392Z,9.93
2023-03-15T08:31:19.539Z,11.35
2023-03-15T08:32:21.839Z,10.90
2023-03-15T08:33:24.050Z,9.98
2023-03-15T08:34:26.144Z,10.00
2023-03-15T08:35:28.213Z,9.90
2023-03-15T08:36:32.817Z,9.88
2023-03-15T08:37:35.079Z,10.40
2023-03-15T08:38:37.863Z,9.90
2023-03-15T08:39:40.184Z,9.80
2023-03-15T08:40:42.879Z,10.85
2023-03-15T08:41:45.770Z,10.63
2023-03-15T08:42:47.717Z,10.35
2023-03-15T08:43:49.731Z,10.18
2023-03-15T08:44:51.704Z,10.15
2023-03-15T08:46:00.983Z,10.15
2023-03-15T08:47:03.784Z,10.93
2023-03-15T08:48:05.962Z,10.68
2023-03-15T08:49:07.917Z,11.00
2023-03-15T08:50:12.889Z,10.88
2023-03-15T08:51:15.070Z,10.88
2023-03-15T08:52:18.251Z,9.85
2023-03-15T08:53:20.494Z,10.27
2023-03-15T08:54:23.639Z,11.18
2023-03-15T08:55:25.733Z,10.63
2023-03-15T08:56:27.710Z,10.90
2023-03-15T08:57:29.991Z,9.85
2023-03-15T08:58:32.001Z,10.27
2023-03-15T08:59:34.016Z,10.10
2023-03-15T09:00:36.185Z,10.95
2023-03-15T09:01:40.531Z,9.77
2023-03-15T09:02:42.595Z,10.80
2023-03-15T09:03:44.711Z,10.15
2023-03-15T09:04:46.771Z,10.65
2023-03-15T09:05:49.065Z,11.50
2023-03-15T09:06:51.073Z,10.82
2023-03-15T09:07:55.907Z,10.95
2023-03-15T09:08:58.148Z,10.88
2023-03-15T09:10:00.157Z,11.07
2023-03-15T09:11:02.445Z,11.00
2023-03-15T09:12:04.873Z,10.90
2023-03-15T09:13:06.985Z,11.15
2023-03-15T09:14:09.172Z,10.52
2023-03-15T09:15:12.448Z,10.65
2023-03-15T09:16:15.188Z,10.43
2023-03-15T09:17:17.181Z,10.32
2023-03-15T09:18:21.034Z,9.38
2023-03-15T09:19:22.999Z,9.93
2023-03-15T09:20:28.374Z,10.07
2023-03-15T09:21:31.883Z,9.55
2023-03-15T09:22:39.469Z,9.93
2023-03-15T09:23:44.190Z,10.02
2023-03-15T09:24:46.332Z,10.10
2023-03-15T09:25:49.092Z,9.88
2023-03-15T09:26:51.011Z,10.73
2023-03-15T09:27:53.206Z,10.48
2023-03-15T09:28:56.861Z,9.93
2023-03-15T09:29:59.029Z,10.50
2023-03-15T09:31:04.590Z,10.00
2023-03-15T09:32:06.752Z,10.70
2023-03-15T09:33:09.467Z,11.15
2023-03-15T09:34:11.564Z,10.43
2023-03-15T09:35:16.485Z,10.50
2023-03-15T09:36:18.539Z,9.85
2023-03-15T09:37:22.037Z,10.77
2023-03-15T09:38:24.259Z,10.57
2023-03-15T09:39:26.285Z,10.60
2023-03-15T09:40:35.204Z,10.35
2023-03-15T09:41:51.148Z,10.57
2023-03-15T09:43:01.570Z,10.48
2023-03-15T09:44:27.819Z,10.88
2023-03-15T09:46:18.679Z,10.07
2023-03-15T09:47:39.170Z,11.40
2023-03-15T09:48:59.206Z,10.20
2023-03-15T09:50:10.369Z,10.07
2023-03-15T09:51:15.394Z,10.63
2023-03-15T09:52:40.331Z,10.52
2023-03-15T09:54:06.583Z,10.45
2023-03-15T09:55:18.862Z,9.93
2023-03-15T09:56:27.353Z,10.73
2023-03-15T09:58:03.405Z,10.57
2023-03-15T09:59:06.956Z,10.55
2023-03-15T10:00:14.714Z,9.85
2023-03-15T10:01:18.271Z,10.13
2023-03-15T10:02:30.281Z,10.48
2023-03-15T10:03:36.262Z,10.05
2023-03-15T10:04:40.688Z,10.05
2023-03-15T10:05:52.045Z,10.50
2023-03-15T10:06:56.875Z,9.90
2023-03-15T10:07:59.094Z,9.93
2023-03-15T10:09:10.879Z,10.25
2023-03-15T10:10:24.693Z,9.85
2023-03-15T10:11:47.268Z,9.55
2023-03-15T10:13:27.287Z,9.10
2023-03-15T10:14:44.883Z,9.73
2023-03-15T10:16:08.300Z,9.75
2023-03-15T10:17:15.920Z,9.85
2023-03-15T10:18:34.112Z,9.80
2023-03-15T10:19:36.036Z,9.35
2023-03-15T10:20:44.714Z,10.10
2023-03-15T10:22:16.092Z,9.77
2023-03-15T10:23:37.006Z,9.18
2023-03-15T10:25:02.551Z,10.02
2023-03-15T10:26:13.871Z,9.98
2023-03-15T10:27:20.483Z,9.82
2023-03-15T10:28:25.907Z,9.88
2023-03-15T10:29:28.854Z,10.18
2023-03-15T10:30:33.596Z,9.73
2023-03-15T10:31:44.536Z,10.70
2023-03-15T10:32:59.727Z,10.32
2023-03-15T10:34:02.327Z,10.23
2023-03-15T10:35:15.029Z,10.55
2023-03-15T10:36:18.821Z,10.07
2023-03-15T10:37:24.049Z,10.82
2023-03-15T10:38:26.970Z,10.32
2023-03-15T10:39:29.317Z,10.63
2023-03-15T10:40:52.002Z,10.73
2023-03-15T10:41:54.074Z,10.07
2023-03-15T10:42:58.227Z,10.30
2023-03-15T10:44:06.394Z,10.60
2023-03-15T10:45:24.355Z,9.90
2023-03-15T10:46:26.679Z,10.73
2023-03-15T10:47:28.645Z,11.10
2023-03-15T10:48:36.041Z,10.23
2023-03-15T10:49:41.518Z,10.40
2023-03-15T10:50:43.554Z,10.30
2023-03-15T10:51:47.685Z,10.48
2023-03-15T10:52:51.433Z,11.45
2023-03-15T10:54:07.322Z,11.40
2023-03-15T10:55:26.218Z,11.07
2023-03-15T10:57:39.920Z,10.02
2023-03-15T10:58:50.828Z,10.95
2023-03-15T11:00:06.868Z,10.18
2023-03-15T11:01:23.486Z,9.85
2023-03-15T11:02:26.458Z,10.32
2023-03-15T11:03:29.838Z,10.57
2023-03-15T11:04:34.330Z,10.27
2023-03-15T11:05:45.789Z,11.10
2023-03-15T11:06:59.219Z,12.05
2023-03-15T11:08:01.520Z,11.32
2023-03-15T11:09:25.525Z,11.80
2023-03-15T11:10:33.631Z,10.88
2023-03-15T11:11:59.190Z,10.25
2023-03-15T11:13:17.772Z,10.20
2023-03-15T11:14:20.043Z,10.82
2023-03-15T11:15:22.054Z,9.95
2023-03-15T11:16:24.038Z,10.50
2023-03-15T11:17:30.798Z,10.80
2023-03-15T11:18:55.539Z,11.18
2023-03-15T11:20:10.104Z,10.50
2023-03-15T11:21:19.820Z,10.98
2023-03-15T11:22:22.311Z,10.73
2023-03-15T11:23:28.805Z,10.35
2023-03-15T11:24:33.624Z,10.60
2023-03-15T11:25:35.760Z,10.50
2023-03-15T11:26:39.756Z,10.55
2023-03-15T11:27:43.566Z,11.68
2023-03-15T11:28:53.183Z,10.48
2023-03-15T11:29:58.413Z,10.73
2023-03-15T11:31:02.056Z,10.45
2023-03-15T11:32:17.975Z,10.65
2023-03-15T11:33:45.253Z,10.48
2023-03-15T11:34:51.829Z,10.38
2023-03-15T11:35:57.713Z,10.55
2023-03-15T11:37:11.606Z,11.18
2023-03-15T11:38:30.529Z,10.65
2023-03-15T11:39:45.471Z,11.55
2023-03-15T11:40:53.883Z,10.65
2023-03-15T11:42:11.104Z,12.05
2023-03-15T11:43:19.816Z,11.13
2023-03-15T11:44:42.948Z,11.73
2023-03-15T11:45:53.662Z,11.65
2023-03-15T11:47:47.532Z,11.07
2023-03-15T11:49:04.931Z,10.50
2023-03-15T11:50:11.887Z,10.98
2023-03-15T11:51:14.466Z,10.38
2023-03-15T11:52:31.005Z,10.65
2023-03-15T11:54:10.415Z,10.85
2023-03-15T11:55:30.885Z,10.48
2023-03-15T11:56:46.512Z,11.18
2023-03-15T11:57:49.801Z,10.65
2023-03-15T11:59:13.177Z,10.80
2023-03-15T12:00:35.704Z,10.85
2023-03-15T12:01:38.558Z,10.35
2023-03-15T12:02:50.445Z,10.52
2023-03-15T12:04:24.760Z,10.88
2023-03-15T12:06:04.510Z,10.13
2023-03-15T12:07:18.947Z,10.65
2023-03-15T12:08:42.023Z,10.32
2023-03-15T12:10:03.335Z,10.15
2023-03-15T12:11:34.032Z,10.90
2023-03-15T12:12:37.140Z,10.93
2023-03-15T12:13:53.165Z,9.95
2023-03-15T12:15:05.497Z,10.75
2023-03-15T12:16:07.870Z,10.93
2023-03-15T12:17:24.862Z,10.40
2023-03-15T12:18:44.048Z,10.50
2023-03-15T12:19:46.466Z,11.70
2023-03-15T12:21:12.485Z,10.35
2023-03-15T12:22:17.744Z,11.07
2023-03-15T12:23:30.121Z,10.52
2023-03-15T12:24:38.691Z,10.43
2023-03-15T12:25:55.357Z,10.35
2023-03-15T12:27:04.094Z,11.05
2023-03-15T12:28:10.964Z,10.15
2023-03-15T12:29:24.174Z,9.85
2023-03-15T12:30:33.821Z,10.18
2023-03-15T12:31:55.134Z,10.27
2023-03-15T12:32:57.810Z,11.27
2023-03-15T12:34:01.556Z,10.85
2023-03-15T12:35:16.413Z,9.95
2023-03-15T12:36:28.189Z,10.20
2023-03-15T12:37:45.244Z,11.07
2023-03-15T12:39:15.204Z,10.35
2023-03-15T12:40:24.071Z,10.45
2023-03-15T12:41:47.714Z,10.75
2023-03-15T12:42:49.704Z,11.80
2023-03-15T12:43:52.526Z,10.13
2023-03-15T12:44:55.325Z,10.07
2023-03-15T12:46:01.423Z,10.00
2023-03-15T12:47:05.690Z,10.57
2023-03-15T12:48:12.926Z,9.95
2023-03-15T12:49:33.941Z,9.90
2023-03-15T12:50:53.152Z,9.52
2023-03-15T12:52:09.948Z,9.85
2023-03-15T12:53:30.955Z,9.50
2023-03-15T12:54:59.220Z,9.60
2023-03-15T12:56:54.296Z,10.38
2023-03-15T12:57:58.182Z,9.80
2023-03-15T12:59:25.917Z,9.30
2023-03-15T13:00:33.977Z,9.38
2023-03-15T13:01:37.404Z,9.65
2023-03-15T13:02:49.990Z,9.52
2023-03-15T13:03:59.786Z,9.63
2023-03-15T13:05:36.388Z,9.15
2023-03-15T13:07:03.167Z,9.63
2023-03-15T13:08:33.225Z,9.68
2023-03-15T13:10:20.701Z,10.27
2023-03-15T13:11:23.031Z,9.98
2023-03-15T13:12:38.090Z,9.85
2023-03-15T13:14:03.370Z,9.43
2023-03-15T13:15:29.305Z,9.77
2023-03-15T13:17:07.144Z,9.00
2023-03-15T13:18:18.775Z,10.07
2023-03-15T13:19:27.625Z,10.35
2023-03-15T13:20:46.567Z,10.00
2023-03-15T13:21:59.923Z,10.70
2023-03-15T13:23:29.054Z,10.35
2023-03-15T13:24:44.972Z,10.60
2023-03-15T13:26:08.578Z,10.30
2023-03-15T13:27:33.050Z,10.82
2023-03-15T13:28:49.596Z,11.02
2023-03-15T13:29:55.831Z,10.43
2023-03-15T13:31:02.151Z,10.68
2023-03-15T13:32:24.129Z,10.50
2023-03-15T13:33:32.501Z,10.60
2023-03-15T13:34:35.517Z,10.63
2023-03-15T13:35:46.171Z,11.02
2023-03-15T13:36:54.823Z,10.05
2023-03-15T13:39:17.872Z,10.15
2023-03-15T13:40:20.062Z,9.70
2023-03-15T13:41:29.846Z,10.63
2023-03-15T13:42:40.353Z,9.82
2023-03-15T13:43:43.418Z,10.00
2023-03-15T13:44:46.997Z,10.32
2023-03-15T13:45:50.404Z,9.82
2023-03-15T13:46:53.775Z,9.70
2023-03-15T13:47:55.827Z,10.52
2023-03-15T13:49:00.906Z,9.95
2023-03-15T13:50:05.157Z,8.82
2023-03-15T13:51:17.200Z,9.63
2023-03-15T13:52:22.643Z,9.35
2023-03-15T13:53:48.244Z,8.85
2023-03-15T13:54:54.557Z,9.65
2023-03-15T13:55:59.740Z,9.40
2023-03-15T13:57:30.969Z,8.93
2023-03-15T13:58:33.528Z,9.50
2023-03-15T14:01:01.960Z,9.65
2023-03-15T14:02:07.234Z,9.38
2023-03-15T14:03:17.418Z,10.07
2023-03-15T14:04:21.075Z,8.90
2023-03-15T14:05:31.370Z,9.52
2023-03-15T14:06:34.944Z,9.38
2023-03-15T14:07:40.032Z,9.30
2023-03-15T14:08:42.288Z,9.10
2023-03-15T14:09:45.831Z,8.82
2023-03-15T14:10:58.702Z,8.93
2023-03-15T14:12:06.508Z,8.32
2023-03-15T14:13:36.281Z,8.45
2023-03-15T14:14:53.184Z,9.65
2023-03-15T14:16:17.776Z,8.60
2023-03-15T14:17:30.720Z,8.75
2023-03-15T14:18:39.067Z,8.35
2023-03-15T14:19:54.418Z,9.00
2023-03-15T14:21:09.752Z,8.57
2023-03-15T14:22:25.350Z,9.35
2023-03-15T14:23:30.565Z,8.65
2023-03-15T14:24:44.310Z,8.73
2023-03-15T14:25:55.091Z,9.07
2023-03-15T14:27:00.630Z,8.77
2023-03-15T14:28:05.714Z,8.68
2023-03-15T14:29:21.755Z,8.30
2023-03-15T14:30:27.904Z,8.65
2023-03-15T14:31:35.762Z,8.07
2023-03-15T14:32:52.686Z,8.02
2023-03-15T14:34:01.016Z,8.25
2023-03-15T14:35:23.657Z,8.57
2023-03-15T14:36:40.109Z,8.20
2023-03-15T14:37:43.725Z,9.10
2023-03-15T14:38:52.251Z,8.30
2023-03-15T14:40:25.873Z,8.68
2023-03-15T14:41:34.184Z,8.52
2023-03-15T14:42:36.186Z,9.67
2023-03-15T14:43:40.440Z,9.43
2023-03-15T14:44:42.459Z,8.80
2023-03-15T14:45:49.014Z,8.35
2023-03-15T14:46:51.384Z,8.57
2023-03-15T14:47:57.960Z,7.88
2023-03-15T14:49:02.799Z,8.60
2023-03-15T14:50:13.053Z,8.80
2023-03-15T14:51:19.202Z,8.95
2023-03-15T14:52:24.611Z,8.52
2023-03-15T14:53:32.573Z,8.55
2023-03-15T14:54:41.336Z,9.23
2023-03-15T14:55:43.449Z,8.80
2023-03-15T14:56:45.630Z,8.52
2023-03-15T14:57:48.676Z,8.57
2023-03-15T14:58:54.491Z,8.60
2023-03-15T14:59:57.276Z,8.63
2023-03-15T15:01:01.177Z,8.98
2023-03-15T15:02:06.990Z,8.32
2023-03-15T15:03:22.815Z,8.57
2023-03-15T15:04:32.750Z,8.90
2023-03-15T15:05:37.605Z,9.32
2023-03-15T15:06:47.740Z,9.30
2023-03-15T15:07:55.130Z,8.98
2023-03-15T15:09:01.703Z,9.00
2023-03-15T15:11:10.924Z,9.25
2023-03-15T15:12:14.790Z,10.57
2023-03-15T15:13:24.064Z,10.45
2023-03-15T15:14:26.083Z,9.65
2023-03-15T15:15:28.402Z,10.25
2023-03-15T15:16:33.865Z,11.40
2023-03-15T15:17:36.740Z,12.02
2023-03-15T15:18:39.133Z,11.00
2023-03-15T15:19:41.142Z,10.80
2023-03-15T15:20:47.134Z,11.52
2023-03-15T15:21:51.140Z,11.35
2023-03-15T15:22:53.252Z,11.38
2023-03-15T15:23:59.342Z,11.40
2023-03-15T15:25:07.220Z,11.85
2023-03-15T15:26:20.515Z,11.63
2023-03-15T15:27:28.571Z,11.40
2023-03-15T15:28:35.961Z,12.00